sensor_id;sensor_type;location;lat;lon;timestamp;pressure;altitude;pressure_sealevel;temperature;humidity
30554;BME280;17335;50.720;7.452;2023-07-29T00:01:27;98648.75;;;18.50;100.00
30554;BME280;17335;50.720;7.452;2023-07-29T00:03:53;98644.56;;;18.48;100.00
30554;BME280;17335;50.720;7.452;2023-07-29T00:06:20;98651.03;;;18.53;100.00
30554;BME280;17335;50.720;7.452;2023-07-29T00:08:46;98645.81;;;18.59;100.00
30554;BME280;17335;50.720;7.452;2023-07-29T00:11:13;98647.44;;;18.60;100.00
30554;BME280;17335;50.720;7.452;2023-07-29T00:13:39;98640.78;;;18.49;100.00
30554;BME280;17335;50.720;7.452;2023-07-29T00:16:06;98631.41;;;18.45;100.00
30554;BME280;17335;50.720;7.452;2023-07-29T00:18:33;98637.03;;;18.50;100.00
30554;BME280;17335;50.720;7.452;2023-07-29T00:20:59;98622.19;;;18.46;100.00
30554;BME280;17335;50.720;7.452;2023-07-29T00:23:26;98621.56;;;18.44;100.00
30554;BME280;17335;50.720;7.452;2023-07-29T00:25:52;98630.13;;;18.47;100.00
30554;BME280;17335;50.720;7.452;2023-07-29T00:28:19;98627.81;;;18.51;100.00
30554;BME280;17335;50.720;7.452;2023-07-29T00:30:49;98633.88;;;18.46;100.00
30554;BME280;17335;50.720;7.452;2023-07-29T00:33:15;98632.84;;;18.47;100.00
30554;BME280;17335;50.720;7.452;2023-07-29T00:35:42;98627.41;;;18.47;100.00
30554;BME280;17335;50.720;7.452;2023-07-29T00:38:08;98631.63;;;18.43;100.00
30554;BME280;17335;50.720;7.452;2023-07-29T00:40:35;98623.25;;;18.45;100.00
30554;BME280;17335;50.720;7.452;2023-07-29T00:43:03;98619.91;;;18.43;100.00
30554;BME280;17335;50.720;7.452;2023-07-29T00:45:30;98616.56;;;18.47;100.00
30554;BME280;17335;50.720;7.452;2023-07-29T00:47:59;98597.31;;;18.49;100.00
30554;BME280;17335;50.720;7.452;2023-07-29T00:50:27;98607.34;;;18.48;100.00
30554;BME280;17335;50.720;7.452;2023-07-29T00:52:55;98600.66;;;18.44;100.00
30554;BME280;17335;50.720;7.452;2023-07-29T00:55:22;98603.16;;;18.46;100.00
30554;BME280;17335;50.720;7.452;2023-07-29T00:57:50;98606.91;;;18.51;100.00
30554;BME280;17335;50.720;7.452;2023-07-29T01:00:19;98600.84;;;18.49;100.00
30554;BME280;17335;50.720;7.452;2023-07-29T01:02:45;98603.16;;;18.46;100.00
30554;BME280;17335;50.720;7.452;2023-07-29T01:05:14;98605.28;;;18.44;100.00
30554;BME280;17335;50.720;7.452;2023-07-29T01:07:55;98595.25;;;18.37;100.00
30554;BME280;17335;50.720;7.452;2023-07-29T01:10:37;98598.56;;;18.46;100.00
30554;BME280;17335;50.720;7.452;2023-07-29T01:13:10;98592.31;;;18.46;100.00
30554;BME280;17335;50.720;7.452;2023-07-29T01:18:19;98586.88;;;18.46;100.00
30554;BME280;17335;50.720;7.452;2023-07-29T01:20:47;98588.16;;;18.36;100.00
30554;BME280;17335;50.720;7.452;2023-07-29T01:23:15;98589.19;;;18.42;100.00
30554;BME280;17335;50.720;7.452;2023-07-29T01:25:42;98584.63;;;18.36;100.00
30554;BME280;17335;50.720;7.452;2023-07-29T01:28:08;98582.72;;;18.43;100.00
30554;BME280;17335;50.720;7.452;2023-07-29T01:30:39;98578.28;;;18.49;100.00
30554;BME280;17335;50.720;7.452;2023-07-29T01:33:14;98579.53;;;18.53;100.00
30554;BME280;17335;50.720;7.452;2023-07-29T01:35:46;98577.25;;;18.50;100.00
30554;BME280;17335;50.720;7.452;2023-07-29T01:38:17;98569.94;;;18.50;100.00
30554;BME280;17335;50.720;7.452;2023-07-29T01:40:45;98577.25;;;18.50;100.00
30554;BME280;17335;50.720;7.452;2023-07-29T01:43:14;98580.16;;;18.55;100.00
30554;BME280;17335;50.720;7.452;2023-07-29T01:45:41;98583.50;;;18.50;100.00
30554;BME280;17335;50.720;7.452;2023-07-29T01:48:08;98583.31;;;18.52;100.00
30554;BME280;17335;50.720;7.452;2023-07-29T01:50:34;98578.69;;;18.52;100.00
30554;BME280;17335;50.720;7.452;2023-07-29T01:53:01;98578.69;;;18.52;100.00
30554;BME280;17335;50.720;7.452;2023-07-29T01:55:28;98573.88;;;18.54;100.00
30554;BME280;17335;50.720;7.452;2023-07-29T01:57:55;98571.16;;;18.48;100.00
30554;BME280;17335;50.720;7.452;2023-07-29T02:00:22;98568.03;;;18.51;100.00
30554;BME280;17335;50.720;7.452;2023-07-29T02:02:51;98568.03;;;18.51;100.00
30554;BME280;17335;50.720;7.452;2023-07-29T02:05:18;98573.88;;;18.48;100.00
30554;BME280;17335;50.720;7.452;2023-07-29T02:07:44;98561.97;;;18.49;100.00
30554;BME280;17335;50.720;7.452;2023-07-29T02:10:11;98560.91;;;18.56;100.00
30554;BME280;17335;50.720;7.452;2023-07-29T02:12:37;98564.50;;;18.50;100.00
30554;BME280;17335;50.720;7.452;2023-07-29T02:15:04;98561.56;;;18.52;100.00
30554;BME280;17335;50.720;7.452;2023-07-29T02:17:31;98556.13;;;18.52;100.00
30554;BME280;17335;50.720;7.452;2023-07-29T02:19:58;98546.09;;;18.46;100.00
30554;BME280;17335;50.720;7.452;2023-07-29T02:22:24;98554.44;;;18.51;100.00
30554;BME280;17335;50.720;7.452;2023-07-29T02:24:51;98553.00;;;18.48;100.00
30554;BME280;17335;50.720;7.452;2023-07-29T02:27:17;98550.50;;;18.47;100.00
30554;BME280;17335;50.720;7.452;2023-07-29T02:29:44;98547.78;;;18.47;100.00
30554;BME280;17335;50.720;7.452;2023-07-29T02:32:12;98534.81;;;18.49;100.00
30554;BME280;17335;50.720;7.452;2023-07-29T02:34:38;98538.16;;;18.44;100.00
30554;BME280;17335;50.720;7.452;2023-07-29T02:37:05;98535.66;;;18.43;100.00
30554;BME280;17335;50.720;7.452;2023-07-29T02:39:31;98531.28;;;18.42;100.00
30554;BME280;17335;50.720;7.452;2023-07-29T02:41:58;98529.41;;;18.42;100.00
30554;BME280;17335;50.720;7.452;2023-07-29T02:44:24;98519.63;;;18.34;100.00
30554;BME280;17335;50.720;7.452;2023-07-29T02:46:51;98524.41;;;18.32;100.00
30554;BME280;17335;50.720;7.452;2023-07-29T02:49:18;98537.53;;;18.49;100.00
30554;BME280;17335;50.720;7.452;2023-07-29T02:51:47;98529.00;;;18.39;100.00
30554;BME280;17335;50.720;7.452;2023-07-29T02:54:13;98532.09;;;18.49;100.00
30554;BME280;17335;50.720;7.452;2023-07-29T02:56:40;98535.66;;;18.43;100.00
30554;BME280;17335;50.720;7.452;2023-07-29T02:59:07;98536.53;;;18.36;100.00
30554;BME280;17335;50.720;7.452;2023-07-29T03:01:33;98523.38;;;18.33;100.00
30554;BME280;17335;50.720;7.452;2023-07-29T03:04:00;98534.03;;;18.35;100.00
30554;BME280;17335;50.720;7.452;2023-07-29T03:06:28;98527.50;;;18.43;100.00
30554;BME280;17335;50.720;7.452;2023-07-29T03:08:55;98533.78;;;18.50;100.00
30554;BME280;17335;50.720;7.452;2023-07-29T03:11:22;98516.22;;;18.46;100.00
30554;BME280;17335;50.720;7.452;2023-07-29T03:13:48;98528.38;;;18.36;100.00
30554;BME280;17335;50.720;7.452;2023-07-29T03:16:16;98531.47;;;18.47;100.00
30554;BME280;17335;50.720;7.452;2023-07-29T03:18:43;98523.31;;;18.47;100.00
30554;BME280;17335;50.720;7.452;2023-07-29T03:21:11;98534.59;;;18.50;100.00
30554;BME280;17335;50.720;7.452;2023-07-29T03:23:38;98513.28;;;18.47;100.00
30554;BME280;17335;50.720;7.452;2023-07-29T03:26:04;98521.03;;;18.44;100.00
30554;BME280;17335;50.720;7.452;2023-07-29T03:28:43;98517.91;;;18.40;100.00
30554;BME280;17335;50.720;7.452;2023-07-29T03:31:10;98520.03;;;18.38;100.00
30554;BME280;17335;50.720;7.452;2023-07-29T03:33:37;98520.66;;;18.33;100.00
30554;BME280;17335;50.720;7.452;2023-07-29T03:36:04;98521.28;;;18.35;100.00
30554;BME280;17335;50.720;7.452;2023-07-29T03:38:31;98526.50;;;18.37;100.00
30554;BME280;17335;50.720;7.452;2023-07-29T03:40:59;98527.97;;;18.40;100.00
30554;BME280;17335;50.720;7.452;2023-07-29T03:43:25;98531.53;;;18.33;100.00
30554;BME280;17335;50.720;7.452;2023-07-29T03:45:52;98529.22;;;18.37;100.00
30554;BME280;17335;50.720;7.452;2023-07-29T03:48:19;98536.75;;;18.35;100.00
30554;BME280;17335;50.720;7.452;2023-07-29T03:50:45;98551.56;;;18.32;100.00
30554;BME280;17335;50.720;7.452;2023-07-29T03:53:12;98595.72;;;18.28;100.00
30554;BME280;17335;50.720;7.452;2023-07-29T03:55:38;98579.81;;;18.31;100.00
30554;BME280;17335;50.720;7.452;2023-07-29T03:58:05;98589.03;;;18.24;100.00
30554;BME280;17335;50.720;7.452;2023-07-29T04:00:31;98565.84;;;18.14;100.00
30554;BME280;17335;50.720;7.452;2023-07-29T04:02:58;98576.50;;;18.16;100.00
30554;BME280;17335;50.720;7.452;2023-07-29T04:05:24;98576.09;;;18.12;100.00
30554;BME280;17335;50.720;7.452;2023-07-29T04:07:51;98585.50;;;18.16;100.00
30554;BME280;17335;50.720;7.452;2023-07-29T04:10:18;98577.75;;;18.13;100.00
30554;BME280;17335;50.720;7.452;2023-07-29T04:12:45;98588.88;;;18.05;100.00
30554;BME280;17335;50.720;7.452;2023-07-29T04:15:11;98584.06;;;18.07;100.00
30554;BME280;17335;50.720;7.452;2023-07-29T04:17:37;98573.59;;;18.11;100.00
30554;BME280;17335;50.720;7.452;2023-07-29T04:20:04;98583.84;;;18.09;100.00
30554;BME280;17335;50.720;7.452;2023-07-29T04:22:31;98592.41;;;18.06;100.00
30554;BME280;17335;50.720;7.452;2023-07-29T04:24:57;98593.25;;;17.99;100.00
30554;BME280;17335;50.720;7.452;2023-07-29T04:27:24;98581.16;;;17.95;100.00
30554;BME280;17335;50.720;7.452;2023-07-29T04:29:51;98585.31;;;18.05;100.00
30554;BME280;17335;50.720;7.452;2023-07-29T04:32:17;98570.50;;;18.01;100.00
30554;BME280;17335;50.720;7.452;2023-07-29T04:34:44;98562.34;;;18.01;100.00
30554;BME280;17335;50.720;7.452;2023-07-29T04:37:11;98565.06;;;17.94;100.00
30554;BME280;17335;50.720;7.452;2023-07-29T04:39:37;98571.53;;;17.99;100.00
30554;BME280;17335;50.720;7.452;2023-07-29T04:42:04;98573.81;;;18.03;100.00
30554;BME280;17335;50.720;7.452;2023-07-29T04:44:30;98570.47;;;18.07;100.00
30554;BME280;17335;50.720;7.452;2023-07-29T04:46:57;98573.41;;;18.06;100.00
30554;BME280;17335;50.720;7.452;2023-07-29T04:49:23;98576.13;;;17.99;100.00
30554;BME280;17335;50.720;7.452;2023-07-29T04:51:50;98566.28;;;18.05;100.00
30554;BME280;17335;50.720;7.452;2023-07-29T04:54:17;98569.00;;;17.98;100.00
30554;BME280;17335;50.720;7.452;2023-07-29T04:56:43;98571.09;;;18.03;100.00
30554;BME280;17335;50.720;7.452;2023-07-29T04:59:10;98574.03;;;18.01;100.00
30554;BME280;17335;50.720;7.452;2023-07-29T05:01:39;98576.53;;;18.03;100.00
30554;BME280;17335;50.720;7.452;2023-07-29T05:04:05;98576.13;;;18.06;100.00
30554;BME280;17335;50.720;7.452;2023-07-29T05:06:32;98575.28;;;18.05;100.00
30554;BME280;17335;50.720;7.452;2023-07-29T05:09:15;98576.94;;;18.06;100.00
30554;BME280;17335;50.720;7.452;2023-07-29T05:11:42;98579.44;;;18.08;100.00
30554;BME280;17335;50.720;7.452;2023-07-29T05:14:13;98579.88;;;18.05;100.00
30554;BME280;17335;50.720;7.452;2023-07-29T05:16:39;98581.97;;;18.09;100.00
30554;BME280;17335;50.720;7.452;2023-07-29T05:19:06;98581.72;;;18.24;100.00
30554;BME280;17335;50.720;7.452;2023-07-29T05:21:33;98595.53;;;18.16;100.00
30554;BME280;17335;50.720;7.452;2023-07-29T05:24:00;98578.16;;;18.17;100.00
30554;BME280;17335;50.720;7.452;2023-07-29T05:26:26;98568.56;;;18.14;100.00
30554;BME280;17335;50.720;7.452;2023-07-29T05:28:53;98579.00;;;18.24;100.00
30554;BME280;17335;50.720;7.452;2023-07-29T05:31:19;98587.38;;;18.16;100.00
30554;BME280;17335;50.720;7.452;2023-07-29T05:33:46;98594.25;;;18.12;100.00
30554;BME280;17335;50.720;7.452;2023-07-29T05:36:12;98598.03;;;18.11;100.00
30554;BME280;17335;50.720;7.452;2023-07-29T05:38:39;98607.44;;;18.15;100.00
30554;BME280;17335;50.720;7.452;2023-07-29T05:41:06;98602.41;;;18.18;100.00
30554;BME280;17335;50.720;7.452;2023-07-29T05:43:33;98600.34;;;18.21;100.00
30554;BME280;17335;50.720;7.452;2023-07-29T05:46:00;98606.78;;;18.26;100.00
30554;BME280;17335;50.720;7.452;2023-07-29T05:48:27;98623.69;;;18.35;100.00
30554;BME280;17335;50.720;7.452;2023-07-29T05:50:53;98615.31;;;18.43;100.00
30554;BME280;17335;50.720;7.452;2023-07-29T05:53:20;98616.56;;;18.47;100.00
30554;BME280;17335;50.720;7.452;2023-07-29T05:55:46;98617.38;;;18.48;100.00
30554;BME280;17335;50.720;7.452;2023-07-29T05:58:13;98618.44;;;18.47;100.00
30554;BME280;17335;50.720;7.452;2023-07-29T06:00:39;98612.81;;;18.42;100.00
30554;BME280;17335;50.720;7.452;2023-07-29T06:03:06;98599.44;;;18.40;100.00
30554;BME280;17335;50.720;7.452;2023-07-29T06:05:33;98591.06;;;18.42;100.00
30554;BME280;17335;50.720;7.452;2023-07-29T06:07:59;98594.19;;;18.45;100.00
30554;BME280;17335;50.720;7.452;2023-07-29T06:10:26;98588.53;;;18.47;100.00
30554;BME280;17335;50.720;7.452;2023-07-29T06:12:52;98590.19;;;18.48;100.00
30554;BME280;17335;50.720;7.452;2023-07-29T06:15:19;98597.94;;;18.51;100.00
30554;BME280;17335;50.720;7.452;2023-07-29T06:17:49;98614.63;;;18.61;100.00
30554;BME280;17335;50.720;7.452;2023-07-29T06:20:15;98624.84;;;18.66;100.00
30554;BME280;17335;50.720;7.452;2023-07-29T06:22:42;98627.34;;;18.74;100.00
30554;BME280;17335;50.720;7.452;2023-07-29T06:25:09;98626.88;;;18.77;100.00
30554;BME280;17335;50.720;7.452;2023-07-29T06:27:36;98616.47;;;18.74;100.00
30554;BME280;17335;50.720;7.452;2023-07-29T06:30:03;98618.72;;;18.77;100.00
30554;BME280;17335;50.720;7.452;2023-07-29T06:32:29;98626.69;;;18.72;100.00
30554;BME280;17335;50.720;7.452;2023-07-29T06:34:56;98628.56;;;18.78;100.00
30554;BME280;17335;50.720;7.452;2023-07-29T06:37:22;98634.41;;;18.82;100.00
30554;BME280;17335;50.720;7.452;2023-07-29T06:39:49;98641.53;;;18.89;100.00
30554;BME280;17335;50.720;7.452;2023-07-29T06:42:15;98643.59;;;18.94;100.00
30554;BME280;17335;50.720;7.452;2023-07-29T06:44:42;98647.78;;;18.97;100.00
30554;BME280;17335;50.720;7.452;2023-07-29T06:47:09;98642.72;;;19.00;100.00
30554;BME280;17335;50.720;7.452;2023-07-29T06:49:35;98645.25;;;19.02;100.00
30554;BME280;17335;50.720;7.452;2023-07-29T06:52:02;98656.94;;;19.02;100.00
30554;BME280;17335;50.720;7.452;2023-07-29T06:54:28;98643.94;;;19.04;100.00
30554;BME280;17335;50.720;7.452;2023-07-29T06:56:56;98648.38;;;18.99;100.00
30554;BME280;17335;50.720;7.452;2023-07-29T06:59:22;98646.69;;;19.04;100.00
30554;BME280;17335;50.720;7.452;2023-07-29T07:01:53;98641.06;;;18.99;100.00
30554;BME280;17335;50.720;7.452;2023-07-29T07:04:19;98633.75;;;19.00;100.00
30554;BME280;17335;50.720;7.452;2023-07-29T07:06:46;98633.50;;;19.01;100.00
30554;BME280;17335;50.720;7.452;2023-07-29T07:09:13;98629.31;;;19.05;100.00
30554;BME280;17335;50.720;7.452;2023-07-29T07:11:39;98627.63;;;19.04;100.00
30554;BME280;17335;50.720;7.452;2023-07-29T07:14:06;98625.09;;;19.09;100.00
30554;BME280;17335;50.720;7.452;2023-07-29T07:16:32;98635.94;;;19.16;100.00
30554;BME280;17335;50.720;7.452;2023-07-29T07:18:58;98636.56;;;19.18;100.00
30554;BME280;17335;50.720;7.452;2023-07-29T07:21:25;98633.97;;;19.30;100.00
30554;BME280;17335;50.720;7.452;2023-07-29T07:23:52;98629.97;;;19.39;100.00
30554;BME280;17335;50.720;7.452;2023-07-29T07:26:18;98626.09;;;19.54;100.00
30554;BME280;17335;50.720;7.452;2023-07-29T07:28:45;98623.91;;;19.62;100.00
30554;BME280;17335;50.720;7.452;2023-07-29T07:31:11;98624.84;;;19.81;100.00
30554;BME280;17335;50.720;7.452;2023-07-29T07:33:38;98628.38;;;20.07;100.00
30554;BME280;17335;50.720;7.452;2023-07-29T07:36:05;98631.75;;;20.28;100.00
30554;BME280;17335;50.720;7.452;2023-07-29T07:38:32;98647.97;;;20.41;100.00
30554;BME280;17335;50.720;7.452;2023-07-29T07:40:58;98635.94;;;20.49;100.00
30554;BME280;17335;50.720;7.452;2023-07-29T07:43:25;98633.97;;;20.56;100.00
30554;BME280;17335;50.720;7.452;2023-07-29T07:45:58;98631.94;;;20.51;100.00
30554;BME280;17335;50.720;7.452;2023-07-29T07:48:26;98627.06;;;20.35;100.00
30554;BME280;17335;50.720;7.452;2023-07-29T07:50:52;98634.63;;;20.33;100.00
30554;BME280;17335;50.720;7.452;2023-07-29T07:53:20;98626.88;;;20.11;100.00
30554;BME280;17335;50.720;7.452;2023-07-29T07:55:46;98628.94;;;20.16;100.00
30554;BME280;17335;50.720;7.452;2023-07-29T07:58:13;98624.13;;;20.36;100.00
30554;BME280;17335;50.720;7.452;2023-07-29T08:00:39;98634.44;;;20.53;100.00
30554;BME280;17335;50.720;7.452;2023-07-29T08:03:07;98630.69;;;20.47;100.00
30554;BME280;17335;50.720;7.452;2023-07-29T08:05:34;98638.28;;;20.45;100.00
30554;BME280;17335;50.720;7.452;2023-07-29T08:08:00;98633.81;;;20.32;100.00
30554;BME280;17335;50.720;7.452;2023-07-29T08:10:27;98635.09;;;20.30;100.00
30554;BME280;17335;50.720;7.452;2023-07-29T08:12:53;98629.25;;;20.26;100.00
30554;BME280;17335;50.720;7.452;2023-07-29T08:15:20;98621.34;;;20.18;100.00
30554;BME280;17335;50.720;7.452;2023-07-29T08:17:46;98627.03;;;20.16;100.00
30554;BME280;17335;50.720;7.452;2023-07-29T08:20:13;98637.50;;;20.19;100.00
30554;BME280;17335;50.720;7.452;2023-07-29T08:22:40;98630.38;;;20.37;100.00
30554;BME280;17335;50.720;7.452;2023-07-29T08:25:06;98612.03;;;20.69;100.00
30554;BME280;17335;50.720;7.452;2023-07-29T08:27:34;98612.31;;;20.79;100.00
30554;BME280;17335;50.720;7.452;2023-07-29T08:30:01;98606.94;;;20.73;100.00
30554;BME280;17335;50.720;7.452;2023-07-29T08:32:27;98605.59;;;20.64;100.00
30554;BME280;17335;50.720;7.452;2023-07-29T08:34:54;98623.59;;;20.65;100.00
30554;BME280;17335;50.720;7.452;2023-07-29T08:37:21;98621.72;;;20.65;100.00
30554;BME280;17335;50.720;7.452;2023-07-29T08:39:47;98623.00;;;20.81;100.00
30554;BME280;17335;50.720;7.452;2023-07-29T08:42:16;98612.31;;;20.79;100.00
30554;BME280;17335;50.720;7.452;2023-07-29T08:44:45;98611.25;;;20.99;100.00
30554;BME280;17335;50.720;7.452;2023-07-29T08:47:15;98610.75;;;21.02;100.00
30554;BME280;17335;50.720;7.452;2023-07-29T08:49:44;98608.34;;;21.24;100.00
30554;BME280;17335;50.720;7.452;2023-07-29T08:52:14;98596.06;;;21.33;100.00
30554;BME280;17335;50.720;7.452;2023-07-29T08:54:41;98596.13;;;21.15;100.00
30554;BME280;17335;50.720;7.452;2023-07-29T08:57:08;98601.00;;;21.25;100.00
30554;BME280;17335;50.720;7.452;2023-07-29T08:59:35;98600.28;;;20.87;100.00
30554;BME280;17335;50.720;7.452;2023-07-29T09:02:02;98616.16;;;20.90;100.00
30554;BME280;17335;50.720;7.452;2023-07-29T09:04:28;98619.66;;;20.60;100.00
30554;BME280;17335;50.720;7.452;2023-07-29T09:06:56;98639.50;;;20.49;100.00
30554;BME280;17335;50.720;7.452;2023-07-29T09:09:23;98631.69;;;20.34;100.00
30554;BME280;17335;50.720;7.452;2023-07-29T09:11:50;98639.94;;;20.28;100.00
30554;BME280;17335;50.720;7.452;2023-07-29T09:14:16;98661.13;;;20.26;100.00
30554;BME280;17335;50.720;7.452;2023-07-29T09:16:43;98653.94;;;20.31;100.00
30554;BME280;17335;50.720;7.452;2023-07-29T09:19:10;98649.25;;;20.38;100.00
30554;BME280;17335;50.720;7.452;2023-07-29T09:21:40;98647.94;;;20.66;100.00
30554;BME280;17335;50.720;7.452;2023-07-29T09:24:07;98646.94;;;20.79;100.00
30554;BME280;17335;50.720;7.452;2023-07-29T09:26:34;98632.53;;;20.90;100.00
30554;BME280;17335;50.720;7.452;2023-07-29T09:29:02;98627.34;;;21.01;100.00
30554;BME280;17335;50.720;7.452;2023-07-29T09:31:29;98641.47;;;21.28;100.00
30554;BME280;17335;50.720;7.452;2023-07-29T09:34:04;98653.53;;;21.39;100.00
30554;BME280;17335;50.720;7.452;2023-07-29T09:36:33;98651.72;;;21.32;100.00
30554;BME280;17335;50.720;7.452;2023-07-29T09:39:01;98651.09;;;21.00;100.00
30554;BME280;17335;50.720;7.452;2023-07-29T09:41:29;98646.78;;;20.92;100.00
30554;BME280;17335;50.720;7.452;2023-07-29T09:44:01;98655.50;;;20.83;100.00
30554;BME280;17335;50.720;7.452;2023-07-29T09:46:36;98664.50;;;20.65;100.00
30554;BME280;17335;50.720;7.452;2023-07-29T09:49:05;98675.13;;;20.54;100.00
30554;BME280;17335;50.720;7.452;2023-07-29T09:51:37;98679.88;;;20.59;100.00
30554;BME280;17335;50.720;7.452;2023-07-29T09:54:05;98684.13;;;20.55;100.00
30554;BME280;17335;50.720;7.452;2023-07-29T09:56:32;98683.13;;;20.49;100.00
30554;BME280;17335;50.720;7.452;2023-07-29T09:58:58;98682.19;;;20.62;100.00
30554;BME280;17335;50.720;7.452;2023-07-29T10:01:28;98681.28;;;20.68;100.00
30554;BME280;17335;50.720;7.452;2023-07-29T10:03:55;98683.75;;;20.70;100.00
30554;BME280;17335;50.720;7.452;2023-07-29T10:06:24;98681.03;;;20.70;100.00
30554;BME280;17335;50.720;7.452;2023-07-29T10:08:51;98686.25;;;20.71;100.00
30554;BME280;17335;50.720;7.452;2023-07-29T10:11:20;98680.81;;;20.71;100.00
30554;BME280;17335;50.720;7.452;2023-07-29T10:13:48;98681.97;;;20.82;100.00
30554;BME280;17335;50.720;7.452;2023-07-29T10:16:30;98669.53;;;20.86;100.00
30554;BME280;17335;50.720;7.452;2023-07-29T10:18:57;98681.13;;;20.63;100.00
30554;BME280;17335;50.720;7.452;2023-07-29T10:21:24;98674.00;;;20.62;100.00
30554;BME280;17335;50.720;7.452;2023-07-29T10:23:53;98669.25;;;20.51;100.00
30554;BME280;17335;50.720;7.452;2023-07-29T10:26:23;98687.22;;;20.58;100.00
30554;BME280;17335;50.720;7.452;2023-07-29T10:28:52;98687.22;;;20.58;100.00
30554;BME280;17335;50.720;7.452;2023-07-29T10:31:20;98676.34;;;20.77;100.00
30554;BME280;17335;50.720;7.452;2023-07-29T10:33:48;98682.19;;;20.99;100.00
30554;BME280;17335;50.720;7.452;2023-07-29T10:36:15;98672.16;;;21.11;100.00
30554;BME280;17335;50.720;7.452;2023-07-29T10:38:42;98653.00;;;21.30;100.00
30554;BME280;17335;50.720;7.452;2023-07-29T10:41:08;98651.75;;;21.44;100.00
30554;BME280;17335;50.720;7.452;2023-07-29T10:43:36;98640.41;;;21.47;100.00
30554;BME280;17335;50.720;7.452;2023-07-29T10:46:22;98644.47;;;21.57;100.00
30554;BME280;17335;50.720;7.452;2023-07-29T10:48:56;98644.56;;;21.50;100.00
30554;BME280;17335;50.720;7.452;2023-07-29T10:54:00;98649.13;;;21.38;100.00
30554;BME280;17335;50.720;7.452;2023-07-29T10:56:32;98639.13;;;21.31;100.00
30554;BME280;17335;50.720;7.452;2023-07-29T11:01:56;98653.63;;;21.32;100.00
30554;BME280;17335;50.720;7.452;2023-07-29T11:04:25;98644.06;;;21.23;100.00
30554;BME280;17335;50.720;7.452;2023-07-29T11:12:48;98660.59;;;20.97;100.00
30554;BME280;17335;50.720;7.452;2023-07-29T11:15:25;98667.78;;;20.92;100.00
30554;BME280;17335;50.720;7.452;2023-07-29T11:17:54;98659.94;;;20.95;100.00
30554;BME280;17335;50.720;7.452;2023-07-29T11:20:23;98663.47;;;21.03;100.00
30554;BME280;17335;50.720;7.452;2023-07-29T11:22:50;98668.47;;;20.87;100.00
30554;BME280;17335;50.720;7.452;2023-07-29T11:25:18;98669.75;;;20.85;100.00
30554;BME280;17335;50.720;7.452;2023-07-29T11:27:45;98674.59;;;20.83;100.00
30554;BME280;17335;50.720;7.452;2023-07-29T11:30:13;98672.94;;;20.82;100.00
30554;BME280;17335;50.720;7.452;2023-07-29T11:32:42;98676.66;;;20.69;100.00
30554;BME280;17335;50.720;7.452;2023-07-29T11:35:12;98681.50;;;20.67;100.00
30554;BME280;17335;50.720;7.452;2023-07-29T11:37:41;98678.50;;;20.50;100.00
30554;BME280;17335;50.720;7.452;2023-07-29T11:40:08;98694.41;;;20.53;100.00
30554;BME280;17335;50.720;7.452;2023-07-29T11:42:38;98701.97;;;20.32;100.00
30554;BME280;17335;50.720;7.452;2023-07-29T11:45:05;98702.66;;;20.21;100.00
30554;BME280;17335;50.720;7.452;2023-07-29T11:47:34;98711.25;;;19.99;100.00
30554;BME280;17335;50.720;7.452;2023-07-29T11:50:08;98709.41;;;19.93;100.00
30554;BME280;17335;50.720;7.452;2023-07-29T11:52:46;98707.13;;;19.90;100.00
30554;BME280;17335;50.720;7.452;2023-07-29T11:55:13;98703.38;;;19.84;100.00
30554;BME280;17335;50.720;7.452;2023-07-29T11:57:42;98690.91;;;19.70;100.00
30554;BME280;17335;50.720;7.452;2023-07-29T12:00:09;98696.88;;;19.85;100.00
30554;BME280;17335;50.720;7.452;2023-07-29T12:02:38;98694.78;;;19.88;100.00
30554;BME280;17335;50.720;7.452;2023-07-29T12:05:06;98695.06;;;19.79;100.00
30554;BME280;17335;50.720;7.452;2023-07-29T12:07:33;98685.91;;;19.67;100.00
30554;BME280;17335;50.720;7.452;2023-07-29T12:10:01;98683.16;;;19.67;100.00
30554;BME280;17335;50.720;7.452;2023-07-29T12:12:30;98670.00;;;19.64;100.00
30554;BME280;17335;50.720;7.452;2023-07-29T12:14:57;98662.81;;;19.70;100.00
30554;BME280;17335;50.720;7.452;2023-07-29T12:17:24;98658.13;;;19.83;100.00
30554;BME280;17335;50.720;7.452;2023-07-29T12:19:54;98658.78;;;20.29;100.00
30554;BME280;17335;50.720;7.452;2023-07-29T12:22:22;98657.53;;;20.50;100.00
30554;BME280;17335;50.720;7.452;2023-07-29T12:24:51;98638.03;;;20.72;100.00
30554;BME280;17335;50.720;7.452;2023-07-29T12:27:21;98640.53;;;20.73;100.00
30554;BME280;17335;50.720;7.452;2023-07-29T12:29:47;98629.56;;;21.10;100.00
30554;BME280;17335;50.720;7.452;2023-07-29T12:32:17;98625.09;;;21.58;100.00
30554;BME280;17335;50.720;7.452;2023-07-29T12:34:44;98623.16;;;22.01;100.00
30554;BME280;17335;50.720;7.452;2023-07-29T12:37:11;98606.28;;;22.27;100.00
30554;BME280;17335;50.720;7.452;2023-07-29T12:39:40;98593.78;;;22.43;100.00
30554;BME280;17335;50.720;7.452;2023-07-29T12:42:10;98590.53;;;22.70;100.00
30554;BME280;17335;50.720;7.452;2023-07-29T12:44:37;98593.47;;;22.80;100.00
30554;BME280;17335;50.720;7.452;2023-07-29T12:47:06;98589.13;;;22.96;100.00
30554;BME280;17335;50.720;7.452;2023-07-29T12:49:32;98582.69;;;23.02;100.00
30554;BME280;17335;50.720;7.452;2023-07-29T12:51:59;98577.13;;;23.26;100.00
30554;BME280;17335;50.720;7.452;2023-07-29T12:54:26;98580.44;;;23.28;100.00
30554;BME280;17335;50.720;7.452;2023-07-29T12:56:53;98577.50;;;23.47;100.00
30554;BME280;17335;50.720;7.452;2023-07-29T12:59:19;98576.41;;;23.65;100.00
30554;BME280;17335;50.720;7.452;2023-07-29T13:01:46;98577.91;;;23.89;100.00
30554;BME280;17335;50.720;7.452;2023-07-29T13:04:12;98562.81;;;23.87;100.00
30554;BME280;17335;50.720;7.452;2023-07-29T13:06:39;98555.47;;;23.75;100.00